Temp: 10.3°C   Baro: 1019.6mb
  Wind: 2.9mph   Dir: SE (145°)
  Rain: 0.0mm (0.0mm/hr)
  Solar: 0W/m2  Hum: 89%
 
Bath Spa Weather Station Historical Data
 
Daily Summary for November 24, 2020 Units:  Metric    English   Both
Daily Weekly Monthly Yearly Custom
  Current: High: Low: Average:
Temperature: 10.3 °C 10.9 °C 10.2 °C 10.5 °C
Dew Point: 9.1 °C 9.2 °C 8.3 °C 8.9 °C
Humidity: 89.2% 90% 82% 87%
Wind Speed: 2.6km/h 11.9km/h 1km/h 6.8km/h
Wind Gust: 6.4km/h 22.5km/h - -
WindSSW - - SSW
Pressure: 1019.5 hPa 1021.9 hPa 1019.5 hPa -
Precipitation: 0 mm      
Historical Graphs
 
 
Tabular Data for November 24, 2020
Time Temperature Dew Point Pressure Wind Wind Speed Wind Gust Humidity Rainfall Rate (Hourly) solar
00:04 10.8 °C 8.3 °C 1021.9 hPa SW 7.7 km/h 16.1 km/h 82% 0 mm 0 W/m2
00:09 10.9 °C 8.4 °C 1021.9 hPa SW 7.1 km/h 17.7 km/h 82% 0 mm 0 W/m2
00:14 10.9 °C 8.5 °C 1021.9 hPa SSW 11.9 km/h 20.9 km/h 82.4% 0 mm 0 W/m2
00:19 10.9 °C 8.6 °C 1021.9 hPa SW 8.2 km/h 20.9 km/h 83% 0 mm 0 W/m2
00:24 10.8 °C 8.7 °C 1021.6 hPa SW 9.8 km/h 16.1 km/h 83.8% 0 mm 0 W/m2
00:29 10.8 °C 8.7 °C 1021.6 hPa WSW 6.4 km/h 12.9 km/h 84% 0 mm 0 W/m2
00:34 10.7 °C 8.8 °C 1021.6 hPa SW 6.3 km/h 12.9 km/h 85% 0 mm 0 W/m2
00:39 10.7 °C 8.8 °C 1021.6 hPa SSW 6.4 km/h 12.9 km/h 85% 0 mm 0 W/m2
00:44 10.6 °C 8.8 °C 1021.6 hPa WSW 7.2 km/h 14.5 km/h 85.4% 0 mm 0 W/m2
00:49 10.6 °C 8.8 °C 1021.6 hPa SSW 6.6 km/h 16.1 km/h 86% 0 mm 0 W/m2
00:54 10.7 °C 8.9 °C 1021.6 hPa SSW 8.5 km/h 16.1 km/h 86% 0 mm 0 W/m2
00:59 10.7 °C 8.9 °C 1021.2 hPa SSW 5.5 km/h 16.1 km/h 86% 0 mm 0 W/m2
01:04 10.7 °C 8.9 °C 1021.2 hPa SSW 6 km/h 16.1 km/h 86% 0 mm 0 W/m2
01:09 10.7 °C 8.9 °C 1021.2 hPa SSW 7.2 km/h 16.1 km/h 86% 0 mm 0 W/m2
01:14 10.7 °C 8.9 °C 1021.2 hPa South 7.1 km/h 16.1 km/h 86.2% 0 mm 0 W/m2
01:19 10.7 °C 9 °C 1021.2 hPa South 4 km/h 12.9 km/h 86.4% 0 mm 0 W/m2
01:24 10.7 °C 9.1 °C 1020.9 hPa SSW 6.9 km/h 11.3 km/h 86.8% 0 mm 0 W/m2
01:29 10.7 °C 9.1 °C 1020.9 hPa SSW 5.5 km/h 16.1 km/h 87% 0 mm 0 W/m2
01:34 10.7 °C 9.1 °C 1020.9 hPa SSW 9 km/h 19.3 km/h 87% 0 mm 0 W/m2
01:39 10.7 °C 9.1 °C 1020.9 hPa SW 9 km/h 19.3 km/h 87% 0 mm 0 W/m2
01:44 10.6 °C 9 °C 1020.9 hPa SSW 8.7 km/h 16.1 km/h 87% 0 mm 0 W/m2
01:49 10.5 °C 8.9 °C 1020.5 hPa SSW 10 km/h 19.3 km/h 87% 0 mm 0 W/m2
01:54 10.4 °C 8.9 °C 1020.5 hPa SSW 7.4 km/h 19.3 km/h 87.8% 0 mm 0 W/m2
01:59 10.3 °C 8.9 °C 1020.5 hPa SSW 6.6 km/h 17.7 km/h 88% 0 mm 0 W/m2
02:04 10.3 °C 8.9 °C 1020.5 hPa SSW 6 km/h 14.5 km/h 88% 0 mm 0 W/m2
02:09 10.2 °C 8.9 °C 1020.5 hPa South 7.7 km/h 17.7 km/h 88.6% 0 mm 0 W/m2
02:14 10.2 °C 9 °C 1020.5 hPa SSW 7.2 km/h 16.1 km/h 89% 0 mm 0 W/m2
02:19 10.2 °C 9 °C 1020.2 hPa South 6 km/h 12.9 km/h 89% 0 mm 0 W/m2
02:24 10.2 °C 9 °C 1020.2 hPa SSW 8.2 km/h 12.9 km/h 89% 0 mm 0 W/m2
02:29 10.2 °C 9 °C 1020.2 hPa SSW 5.3 km/h 12.9 km/h 89% 0 mm 0 W/m2
02:34 10.2 °C 9 °C 1019.9 hPa SSW 10.8 km/h 22.5 km/h 89% 0 mm 0 W/m2
02:39 10.2 °C 9 °C 1019.9 hPa South 7.9 km/h 19.3 km/h 89% 0 mm 0 W/m2
02:44 10.2 °C 9 °C 1019.9 hPa South 7.4 km/h 20.9 km/h 89% 0 mm 0 W/m2
02:49 10.2 °C 9 °C 1019.9 hPa SSW 9.3 km/h 19.3 km/h 89.2% 0 mm 0 W/m2
02:54 10.2 °C 9.1 °C 1019.9 hPa South 6 km/h 12.9 km/h 89.4% 0 mm 0 W/m2
02:59 10.2 °C 9.1 °C 1019.9 hPa South 6 km/h 12.9 km/h 89.6% 0 mm 0 W/m2
03:04 10.2 °C 9 °C 1019.5 hPa SSW 5.1 km/h 11.3 km/h 89.2% 0 mm 0 W/m2
03:09 10.2 °C 9.1 °C 1019.5 hPa South 5.5 km/h 12.9 km/h 89.6% 0 mm 0 W/m2
03:14 10.3 °C 9.2 °C 1019.5 hPa South 1 km/h 9.7 km/h 90% 0 mm 0 W/m2
03:19 10.3 °C 9.2 °C 1019.5 hPa South 1.9 km/h 6.4 km/h 90% 0 mm 0 W/m2
03:24 10.3 °C 9.2 °C 1019.5 hPa South 1.6 km/h 4.8 km/h 90% 0 mm 0 W/m2
03:29 10.3 °C 9.1 °C 1019.5 hPa SSW 2.6 km/h 6.4 km/h 89.2% 0 mm 0 W/m2
Bath Spa Weather
Compliments of Weather Underground - 2 mb